Terminal Aerodrome Forecast
Issued by NWS

Home | Current Version | Previous Version | Text Only | Print | Product List | Glossary On
Versions: 1 2 3 4 5 6 7 8 9 10 11 12 13 14 15
812
FTUS43 KPAH 151120
TAFCGI
TAF
KCGI 151120Z 1512/1612 19015G22KT 3SM -SHRA BR SCT007 BKN015
      TEMPO 1512/1513 1SM +SHRA BR BKN007
     FM151400 32015G23KT P6SM BKN025
     FM151800 35015G25KT P6SM SCT025
     FM160000 35010KT P6SM SKC
     FM160600 36005KT P6SM SKC
     FM160900 36003KT 4SM BR SKC=

USA.gov is the U.S. government's official web portal to all federal, state and local government web resources and services.